Time;durP1;ratioP1;P1;durP2;ratioP2;P2;SDS_P1;SDS_P2;PMS_P1;PMS_P2;Temp;Humidity;BMP_temperature;BMP_pressure;BME280_temperature;BME280_humidity;BME280_pressure;Samples;Min_cycle;Max_cycle;Signal;HPM_P1;HPM_P2
2022/11/15 00:01:57;;;;;;;32.42;17.65;;;;;;;;;;5021869;28;20058;-73
2022/11/15 00:04:24;;;;;;;35.38;17.60;;;;;;;;;;5022633;28;20053;-71
2022/11/15 00:06:50;;;;;;;34.42;17.55;;;;;;;;;;5022708;28;20061;-71
2022/11/15 00:09:16;;;;;;;37.42;17.33;;;;;;;;;;5019500;28;20248;-72
2022/11/15 00:11:42;;;;;;;34.40;17.55;;;;;;;;;;5005622;28;20053;-71
2022/11/15 00:14:09;;;;;;;35.08;16.98;;;;;;;;;;5054250;28;20080;-76
2022/11/15 00:16:35;;;;;;;40.35;18.25;;;;;;;;;;5031797;28;20538;-74
2022/11/15 00:19:02;;;;;;;35.85;17.85;;;;;;;;;;5027729;28;20061;-73
2022/11/15 00:21:28;;;;;;;37.95;18.70;;;;;;;;;;5022730;28;20054;-72
2022/11/15 00:23:54;;;;;;;42.25;18.88;;;;;;;;;;5021512;28;20046;-72
2022/11/15 00:26:20;;;;;;;41.15;18.77;;;;;;;;;;5021727;28;20567;-73
2022/11/15 00:28:47;;;;;;;39.05;18.60;;;;;;;;;;5022399;28;20061;-73
2022/11/15 00:31:14;;;;;;;42.33;20.20;;;;;;;;;;5022162;28;20422;-71
2022/11/15 00:33:42;;;;;;;45.47;20.02;;;;;;;;;;5010527;28;20053;-73
2022/11/15 00:36:09;;;;;;;49.30;21.17;;;;;;;;;;5011320;28;20501;-74
2022/11/15 00:38:36;;;;;;;46.88;20.30;;;;;;;;;;5012073;28;20053;-71
2022/11/15 00:41:03;;;;;;;44.05;20.10;;;;;;;;;;5022202;28;20054;-72
2022/11/15 00:43:34;;;;;;;51.35;22.20;;;;;;;;;;5025308;28;20140;-72
2022/11/15 00:46:02;;;;;;;52.53;21.25;;;;;;;;;;5022220;28;20597;-74
2022/11/15 00:48:28;;;;;;;52.35;23.70;;;;;;;;;;5013138;28;20049;-75
2022/11/15 00:50:54;;;;;;;54.50;22.40;;;;;;;;;;5014320;28;20511;-73
2022/11/15 00:53:21;;;;;;;49.08;21.80;;;;;;;;;;5022834;28;20057;-75
2022/11/15 00:55:47;;;;;;;57.50;22.67;;;;;;;;;;5025615;28;20050;-73
2022/11/15 00:58:13;;;;;;;62.13;22.73;;;;;;;;;;5025824;28;20046;-71
2022/11/15 01:00:39;;;;;;;48.08;22.83;;;;;;;;;;5023331;28;20085;-72
2022/11/15 01:03:06;;;;;;;59.63;22.60;;;;;;;;;;5020427;28;20050;-72
2022/11/15 01:05:32;;;;;;;59.08;23.60;;;;;;;;;;5024944;28;20460;-73
2022/11/15 01:07:59;;;;;;;54.47;22.65;;;;;;;;;;5011122;28;20061;-73
2022/11/15 01:10:25;;;;;;;56.88;23.33;;;;;;;;;;5024205;28;20064;-75
2022/11/15 01:12:52;;;;;;;57.05;23.13;;;;;;;;;;5025508;28;20141;-73
2022/11/15 01:15:18;;;;;;;56.35;23.67;;;;;;;;;;5024722;28;20081;-75
2022/11/15 01:17:44;;;;;;;56.97;23.27;;;;;;;;;;5054918;28;20050;-75
2022/11/15 01:20:11;;;;;;;48.50;22.17;;;;;;;;;;5025153;28;20992;-74
2022/11/15 01:22:37;;;;;;;61.42;21.98;;;;;;;;;;5025067;28;20141;-74
2022/11/15 01:25:04;;;;;;;57.88;24.15;;;;;;;;;;5024391;28;20057;-72
2022/11/15 01:27:30;;;;;;;61.05;23.15;;;;;;;;;;5024141;28;20053;-75
2022/11/15 01:29:56;;;;;;;55.33;24.63;;;;;;;;;;5024633;28;20046;-74
2022/11/15 01:32:23;;;;;;;62.20;25.50;;;;;;;;;;5024120;28;20101;-73
2022/11/15 01:34:49;;;;;;;65.00;25.08;;;;;;;;;;5023740;28;20472;-73
2022/11/15 01:37:15;;;;;;;59.63;24.60;;;;;;;;;;5026488;28;20057;-72
2022/11/15 01:39:41;;;;;;;55.25;23.38;;;;;;;;;;5024758;28;20045;-75
2022/11/15 01:42:12;;;;;;;55.97;23.98;;;;;;;;;;5012234;28;20872;-73
2022/11/15 01:44:43;;;;;;;54.83;23.33;;;;;;;;;;5024597;28;20061;-73
2022/11/15 01:47:15;;;;;;;57.03;24.27;;;;;;;;;;5025451;28;20053;-75
2022/11/15 01:49:59;;;;;;;51.63;25.25;;;;;;;;;;5025428;28;20058;-74
2022/11/15 01:52:27;;;;;;;55.42;23.42;;;;;;;;;;5023291;28;20046;-73
2022/11/15 01:54:56;;;;;;;57.83;23.23;;;;;;;;;;5024724;28;20050;-72
2022/11/15 01:57:22;;;;;;;57.45;24.05;;;;;;;;;;5020395;28;20061;-74
2022/11/15 01:59:48;;;;;;;51.90;23.92;;;;;;;;;;5024552;28;20050;-71
2022/11/15 02:02:15;;;;;;;61.45;24.52;;;;;;;;;;5024666;28;20058;-75
2022/11/15 02:04:43;;;;;;;58.88;24.85;;;;;;;;;;5030829;28;20131;-75
2022/11/15 02:07:10;;;;;;;58.92;24.98;;;;;;;;;;5015598;28;20164;-75
2022/11/15 02:09:38;;;;;;;54.30;23.60;;;;;;;;;;5027711;28;20104;-74
2022/11/15 02:12:05;;;;;;;66.28;25.33;;;;;;;;;;5023869;28;20053;-73
2022/11/15 02:14:32;;;;;;;59.92;25.00;;;;;;;;;;5023304;28;20057;-73
2022/11/15 02:17:02;;;;;;;55.97;23.60;;;;;;;;;;5020138;28;20101;-75
2022/11/15 02:19:38;;;;;;;57.10;25.27;;;;;;;;;;5021790;28;20050;-75
2022/11/15 02:22:07;;;;;;;58.17;24.40;;;;;;;;;;5004998;28;20140;-73
2022/11/15 02:24:53;;;;;;;55.03;23.15;;;;;;;;;;5014883;28;20159;-74
2022/11/15 02:27:20;;;;;;;62.55;26.30;;;;;;;;;;5020670;28;20057;-74
2022/11/15 02:29:49;;;;;;;56.95;23.98;;;;;;;;;;5004284;28;20052;-74
2022/11/15 02:32:20;;;;;;;62.67;26.60;;;;;;;;;;5013165;28;20471;-72
2022/11/15 02:34:49;;;;;;;56.00;25.23;;;;;;;;;;5023383;28;20535;-74
2022/11/15 02:37:26;;;;;;;59.72;25.42;;;;;;;;;;5007532;28;20497;-74
2022/11/15 02:40:10;;;;;;;55.75;24.92;;;;;;;;;;5008003;28;20054;-72
2022/11/15 02:45:36;;;;;;;67.10;26.75;;;;;;;;;;5005272;28;20053;-75
2022/11/15 02:48:03;;;;;;;58.30;26.38;;;;;;;;;;5010431;28;20061;-75
2022/11/15 02:50:31;;;;;;;67.63;27.63;;;;;;;;;;5013530;28;20101;-71
2022/11/15 02:52:57;;;;;;;64.72;26.65;;;;;;;;;;5006056;28;20053;-75
2022/11/15 02:55:34;;;;;;;65.72;26.77;;;;;;;;;;5011374;28;20061;-75
2022/11/15 02:58:09;;;;;;;58.47;26.52;;;;;;;;;;5004513;28;20042;-74
2022/11/15 03:00:39;;;;;;;50.30;24.23;;;;;;;;;;5035582;28;20417;-76
2022/11/15 03:03:24;;;;;;;62.95;27.30;;;;;;;;;;5007285;28;20065;-75
2022/11/15 03:05:54;;;;;;;74.47;28.63;;;;;;;;;;5039573;28;20550;-75
2022/11/15 03:08:39;;;;;;;66.22;27.17;;;;;;;;;;5022990;28;20265;-72
2022/11/15 03:11:05;;;;;;;64.30;27.45;;;;;;;;;;5005061;28;20050;-72
2022/11/15 03:13:35;;;;;;;72.43;27.98;;;;;;;;;;5006603;28;20050;-72
2022/11/15 03:16:07;;;;;;;66.93;28.67;;;;;;;;;;5014028;28;20522;-72
2022/11/15 03:18:36;;;;;;;62.85;27.60;;;;;;;;;;5003047;28;20065;-72
2022/11/15 03:21:05;;;;;;;64.10;28.70;;;;;;;;;;5003902;28;20560;-71
2022/11/15 03:23:32;;;;;;;73.15;29.58;;;;;;;;;;5009547;28;20112;-74
2022/11/15 03:26:00;;;;;;;72.82;28.80;;;;;;;;;;5007866;28;20062;-73
2022/11/15 03:28:36;;;;;;;73.25;27.85;;;;;;;;;;5003658;28;20050;-72
2022/11/15 03:31:46;;;;;;;74.65;31.30;;;;;;;;;;5007834;28;20061;-73
2022/11/15 03:33:51;;;;;;;79.43;30.65;;;;;;;;;;5004393;28;20058;-75
2022/11/15 03:36:18;;;;;;;73.70;30.42;;;;;;;;;;5004425;28;20501;-73
2022/11/15 03:38:44;;;;;;;68.38;28.13;;;;;;;;;;5007073;28;20046;-74
2022/11/15 03:41:23;;;;;;;64.57;27.77;;;;;;;;;;5003952;28;20042;-70
2022/11/15 03:43:57;;;;;;;58.97;26.08;;;;;;;;;;5002497;28;20050;-74
2022/11/15 03:46:25;;;;;;;62.88;29.85;;;;;;;;;;5012416;28;20527;-72
2022/11/15 03:48:56;;;;;;;66.18;29.42;;;;;;;;;;5022923;28;20050;-74
2022/11/15 03:51:22;;;;;;;72.10;29.02;;;;;;;;;;5011882;28;20065;-75
2022/11/15 03:53:49;;;;;;;69.95;28.30;;;;;;;;;;5003340;28;20057;-74
2022/11/15 03:56:15;;;;;;;73.78;29.02;;;;;;;;;;5012643;28;20468;-71
2022/11/15 03:58:41;;;;;;;68.03;28.65;;;;;;;;;;5003958;28;20511;-72
2022/11/15 04:01:07;;;;;;;72.47;30.05;;;;;;;;;;5007438;28;20055;-71
2022/11/15 04:03:34;;;;;;;64.68;28.25;;;;;;;;;;5016371;28;20058;-73
2022/11/15 04:06:00;;;;;;;73.00;30.50;;;;;;;;;;5004361;28;20241;-73
2022/11/15 04:08:26;;;;;;;65.47;28.20;;;;;;;;;;5021620;28;20424;-75
2022/11/15 04:10:53;;;;;;;65.32;28.90;;;;;;;;;;5003947;28;20054;-75
2022/11/15 04:13:19;;;;;;;69.03;30.00;;;;;;;;;;5003889;28;20063;-74
2022/11/15 04:15:45;;;;;;;64.20;29.77;;;;;;;;;;5004385;28;20054;-74
2022/11/15 04:18:11;;;;;;;64.53;27.75;;;;;;;;;;5002701;28;20046;-71
2022/11/15 04:26:10;;;;;;;67.68;28.08;;;;;;;;;;5009584;28;20050;-75
2022/11/15 04:29:33;;;;;;;60.90;27.13;;;;;;;;;;5003712;28;20050;-73
2022/11/15 04:31:26;;;;;;;64.78;27.70;;;;;;;;;;5002349;28;20065;-73
2022/11/15 04:33:52;;;;;;;65.18;29.55;;;;;;;;;;5013290;28;20419;-72
2022/11/15 04:39:04;;;;;;;66.13;27.40;;;;;;;;;;5002643;28;20137;-74
2022/11/15 04:41:30;;;;;;;59.45;28.80;;;;;;;;;;5005144;28;20055;-75
2022/11/15 04:43:57;;;;;;;60.15;29.00;;;;;;;;;;5002669;28;20054;-73
2022/11/15 04:46:24;;;;;;;62.10;27.80;;;;;;;;;;5007322;28;20140;-74
2022/11/15 04:48:50;;;;;;;61.97;27.58;;;;;;;;;;5002462;28;20081;-72
2022/11/15 04:51:23;;;;;;;66.00;28.95;;;;;;;;;;5002756;28;20054;-75
2022/11/15 04:53:49;;;;;;;61.33;28.48;;;;;;;;;;5002238;28;20098;-73
2022/11/15 04:56:16;;;;;;;60.50;27.92;;;;;;;;;;5002384;28;20052;-75
2022/11/15 04:58:42;;;;;;;63.00;27.73;;;;;;;;;;5002425;28;20059;-74
2022/11/15 05:01:09;;;;;;;63.00;28.13;;;;;;;;;;5004047;28;20043;-74
2022/11/15 05:06:21;;;;;;;61.17;28.35;;;;;;;;;;5017872;28;20050;-73
2022/11/15 05:08:48;;;;;;;58.58;27.40;;;;;;;;;;5002320;28;20042;-75
2022/11/15 05:11:14;;;;;;;62.75;27.35;;;;;;;;;;5002781;28;20124;-75
2022/11/15 05:13:40;;;;;;;61.05;27.23;;;;;;;;;;5008230;28;20046;-74
2022/11/15 05:16:07;;;;;;;60.97;27.02;;;;;;;;;;5013359;28;20062;-75
2022/11/15 05:18:33;;;;;;;67.22;28.95;;;;;;;;;;5013329;28;20073;-75
2022/11/15 05:21:03;;;;;;;54.17;25.33;;;;;;;;;;5012936;28;20058;-75
2022/11/15 05:23:29;;;;;;;59.65;24.77;;;;;;;;;;5003478;28;20534;-71
2022/11/15 05:26:00;;;;;;;60.70;26.63;;;;;;;;;;5002006;28;20058;-71
2022/11/15 05:28:33;;;;;;;56.88;25.05;;;;;;;;;;5006357;28;20461;-70
2022/11/15 05:31:03;;;;;;;57.40;26.63;;;;;;;;;;5002552;28;20057;-74
2022/11/15 05:33:30;;;;;;;57.72;25.77;;;;;;;;;;5006454;28;20050;-70
2022/11/15 05:36:02;;;;;;;51.90;25.65;;;;;;;;;;5019793;28;20050;-75
2022/11/15 05:38:29;;;;;;;61.35;25.85;;;;;;;;;;5020917;28;20646;-72
2022/11/15 05:40:55;;;;;;;60.80;27.60;;;;;;;;;;5016075;28;20101;-75
2022/11/15 05:43:22;;;;;;;57.60;26.92;;;;;;;;;;5004698;28;20050;-73
2022/11/15 05:45:48;;;;;;;58.92;26.92;;;;;;;;;;5010667;28;20046;-75
2022/11/15 05:48:14;;;;;;;55.38;26.20;;;;;;;;;;5017585;28;20046;-75
2022/11/15 05:50:42;;;;;;;65.03;27.20;;;;;;;;;;5018169;28;20093;-73
2022/11/15 05:53:10;;;;;;;58.25;27.85;;;;;;;;;;5009671;28;20062;-75
2022/11/15 05:55:38;;;;;;;58.55;26.98;;;;;;;;;;5018304;28;20050;-73
2022/11/15 05:58:05;;;;;;;62.03;26.30;;;;;;;;;;5011676;28;20137;-75
2022/11/15 06:00:31;;;;;;;52.33;23.85;;;;;;;;;;5008995;28;20047;-71
2022/11/15 06:02:57;;;;;;;60.35;26.77;;;;;;;;;;5009015;28;20049;-75
2022/11/15 06:05:24;;;;;;;58.25;25.15;;;;;;;;;;5021842;28;20065;-75
2022/11/15 06:07:50;;;;;;;56.67;25.40;;;;;;;;;;5013029;28;20500;-73
2022/11/15 06:10:16;;;;;;;58.28;25.60;;;;;;;;;;5023246;28;20060;-73
2022/11/15 06:12:43;;;;;;;59.50;26.35;;;;;;;;;;5023940;28;20584;-72
2022/11/15 06:15:09;;;;;;;58.42;25.75;;;;;;;;;;5015987;28;20059;-76
2022/11/15 06:17:36;;;;;;;64.65;27.33;;;;;;;;;;5022620;28;20058;-72
2022/11/15 06:20:03;;;;;;;61.60;26.35;;;;;;;;;;5015497;28;20057;-77
2022/11/15 06:22:29;;;;;;;63.00;27.05;;;;;;;;;;5015682;28;20109;-74
2022/11/15 06:24:55;;;;;;;55.72;25.42;;;;;;;;;;5004362;28;20065;-73
2022/11/15 06:27:28;;;;;;;60.75;25.42;;;;;;;;;;5004185;28;20050;-73
2022/11/15 06:29:54;;;;;;;59.95;26.70;;;;;;;;;;5012681;28;20054;-73
2022/11/15 06:32:20;;;;;;;57.22;26.73;;;;;;;;;;5002650;28;20050;-72
2022/11/15 06:34:46;;;;;;;63.10;27.58;;;;;;;;;;5011947;28;20065;-75
2022/11/15 06:37:13;;;;;;;55.42;26.02;;;;;;;;;;5004150;28;20066;-75
2022/11/15 06:39:39;;;;;;;57.92;25.48;;;;;;;;;;5006573;28;20513;-70
2022/11/15 06:42:07;;;;;;;59.25;26.88;;;;;;;;;;5015302;28;20632;-75
2022/11/15 06:44:34;;;;;;;55.78;27.10;;;;;;;;;;5003606;28;20484;-73
2022/11/15 06:47:00;;;;;;;59.58;26.17;;;;;;;;;;5004464;28;20055;-73
2022/11/15 06:49:26;;;;;;;54.35;26.85;;;;;;;;;;5015871;28;20506;-72
2022/11/15 06:51:52;;;;;;;59.42;25.63;;;;;;;;;;5016688;28;20571;-75
2022/11/15 06:54:20;;;;;;;58.83;27.13;;;;;;;;;;5013617;28;20057;-70
2022/11/15 06:56:46;;;;;;;65.03;27.17;;;;;;;;;;5017691;28;20050;-71
2022/11/15 06:59:13;;;;;;;71.40;29.25;;;;;;;;;;5023970;28;20050;-73
2022/11/15 07:01:39;;;;;;;68.85;27.60;;;;;;;;;;5020320;28;20526;-72
2022/11/15 07:04:06;;;;;;;64.28;27.98;;;;;;;;;;5020440;28;20784;-73
2022/11/15 07:06:32;;;;;;;57.83;27.08;;;;;;;;;;5024144;28;20042;-75
2022/11/15 07:08:58;;;;;;;59.05;26.52;;;;;;;;;;5027749;28;20137;-75
2022/11/15 07:11:25;;;;;;;54.47;25.73;;;;;;;;;;5025943;28;20057;-71
2022/11/15 07:13:51;;;;;;;60.25;25.83;;;;;;;;;;5022816;28;20053;-74
2022/11/15 07:16:17;;;;;;;51.92;25.48;;;;;;;;;;5025532;28;20054;-74
2022/11/15 07:18:43;;;;;;;61.35;26.80;;;;;;;;;;5024368;28;20509;-70
2022/11/15 07:21:11;;;;;;;60.25;26.98;;;;;;;;;;5021121;28;20867;-71
2022/11/15 07:23:38;;;;;;;61.95;25.85;;;;;;;;;;5021790;28;20065;-72
2022/11/15 07:26:05;;;;;;;50.20;24.65;;;;;;;;;;5022068;28;20546;-74
2022/11/15 07:28:32;;;;;;;57.58;25.52;;;;;;;;;;5017826;28;20053;-74
2022/11/15 07:31:01;;;;;;;60.90;25.88;;;;;;;;;;5023294;28;20120;-73
2022/11/15 07:33:27;;;;;;;59.22;25.35;;;;;;;;;;5013078;28;20061;-73
2022/11/15 07:35:58;;;;;;;55.08;25.02;;;;;;;;;;5009186;28;20057;-75
2022/11/15 07:38:24;;;;;;;47.17;24.02;;;;;;;;;;5024563;28;20057;-76
2022/11/15 07:40:55;;;;;;;49.67;24.10;;;;;;;;;;5020497;28;20476;-74
2022/11/15 07:43:22;;;;;;;53.17;24.25;;;;;;;;;;5033946;28;20818;-75
2022/11/15 07:45:48;;;;;;;52.97;24.13;;;;;;;;;;5028547;28;20062;-72
2022/11/15 07:48:19;;;;;;;52.17;24.00;;;;;;;;;;5023774;28;20558;-75
2022/11/15 07:50:46;;;;;;;48.92;23.30;;;;;;;;;;5020872;28;20057;-75
2022/11/15 07:53:12;;;;;;;50.45;23.70;;;;;;;;;;5032299;28;20056;-71
2022/11/15 07:55:39;;;;;;;46.90;21.45;;;;;;;;;;5023617;28;20054;-74
2022/11/15 07:58:08;;;;;;;49.30;22.20;;;;;;;;;;5028323;28;20060;-71
2022/11/15 08:00:34;;;;;;;52.30;23.50;;;;;;;;;;5008398;28;20069;-71
2022/11/15 08:03:01;;;;;;;55.08;23.48;;;;;;;;;;5038327;28;20524;-75
2022/11/15 08:05:27;;;;;;;41.00;21.25;;;;;;;;;;5021782;28;20050;-73
2022/11/15 08:07:57;;;;;;;47.47;21.40;;;;;;;;;;5024966;28;20061;-74
2022/11/15 08:10:23;;;;;;;43.45;20.83;;;;;;;;;;5021058;28;20063;-75
2022/11/15 08:13:16;;;;;;;41.75;20.90;;;;;;;;;;5018949;28;20631;-76
2022/11/15 08:15:43;;;;;;;43.85;20.83;;;;;;;;;;5040161;28;20053;-71
2022/11/15 08:18:11;;;;;;;42.00;20.60;;;;;;;;;;5042902;28;20060;-74
2022/11/15 08:20:38;;;;;;;45.63;22.08;;;;;;;;;;5014978;28;20051;-73
2022/11/15 08:23:05;;;;;;;45.15;20.85;;;;;;;;;;5012476;28;20058;-76
2022/11/15 08:25:32;;;;;;;44.47;21.60;;;;;;;;;;5038911;28;20053;-74
2022/11/15 08:27:59;;;;;;;41.00;21.35;;;;;;;;;;5020132;28;20448;-71
2022/11/15 08:30:26;;;;;;;36.97;21.05;;;;;;;;;;5037934;28;20394;-73
2022/11/15 08:32:53;;;;;;;42.63;20.80;;;;;;;;;;5035311;28;20046;-73
2022/11/15 08:35:20;;;;;;;46.55;20.67;;;;;;;;;;5021879;28;20200;-73
2022/11/15 08:37:53;;;;;;;39.47;19.17;;;;;;;;;;5022983;28;20049;-72
2022/11/15 08:40:20;;;;;;;38.55;20.40;;;;;;;;;;5028622;28;20052;-72
2022/11/15 08:42:47;;;;;;;34.63;18.55;;;;;;;;;;5021363;28;20062;-73
2022/11/15 08:45:13;;;;;;;40.05;18.92;;;;;;;;;;5016373;28;20073;-73
2022/11/15 08:47:39;;;;;;;39.95;19.20;;;;;;;;;;5023406;28;20562;-74
2022/11/15 08:50:06;;;;;;;34.97;18.83;;;;;;;;;;5034281;28;20060;-74
2022/11/15 08:52:32;;;;;;;34.10;17.75;;;;;;;;;;5034621;28;20568;-73
2022/11/15 08:54:59;;;;;;;38.17;18.77;;;;;;;;;;5031218;28;20081;-72
2022/11/15 08:57:28;;;;;;;37.70;17.25;;;;;;;;;;5019527;28;20054;-72
2022/11/15 08:59:54;;;;;;;36.22;17.38;;;;;;;;;;5032609;28;20050;-71
2022/11/15 09:02:20;;;;;;;32.35;16.35;;;;;;;;;;5023675;28;20433;-73
2022/11/15 09:04:47;;;;;;;32.53;17.45;;;;;;;;;;5038751;28;20061;-73
2022/11/15 09:07:14;;;;;;;29.63;16.42;;;;;;;;;;5013199;28;20129;-73
2022/11/15 09:09:41;;;;;;;26.90;16.00;;;;;;;;;;5032776;28;20096;-72
2022/11/15 09:12:07;;;;;;;27.17;16.05;;;;;;;;;;5025957;28;20068;-71
2022/11/15 09:14:33;;;;;;;25.65;15.73;;;;;;;;;;5023476;28;20538;-73
2022/11/15 09:17:00;;;;;;;32.08;16.30;;;;;;;;;;5031866;28;20531;-73
2022/11/15 09:19:27;;;;;;;26.15;15.95;;;;;;;;;;5038848;28;20057;-73
2022/11/15 09:21:54;;;;;;;31.42;16.65;;;;;;;;;;5016751;28;20113;-72
2022/11/15 09:24:20;;;;;;;27.08;15.82;;;;;;;;;;5026225;28;20050;-74
2022/11/15 09:26:49;;;;;;;36.45;17.15;;;;;;;;;;5027214;28;20806;-73
2022/11/15 09:29:15;;;;;;;25.15;16.67;;;;;;;;;;5023613;28;20065;-72
2022/11/15 09:31:41;;;;;;;25.85;16.17;;;;;;;;;;5028101;28;20053;-72
2022/11/15 09:34:08;;;;;;;23.83;14.32;;;;;;;;;;5034579;28;20089;-73
2022/11/15 09:36:34;;;;;;;24.88;14.80;;;;;;;;;;5023608;28;20050;-73
2022/11/15 09:39:01;;;;;;;25.48;14.35;;;;;;;;;;5021744;28;20829;-72
2022/11/15 09:41:38;;;;;;;22.08;13.48;;;;;;;;;;5021504;28;20501;-72
2022/11/15 09:44:19;;;;;;;22.10;14.10;;;;;;;;;;5038248;28;20049;-73
2022/11/15 09:46:57;;;;;;;22.70;12.90;;;;;;;;;;5023146;28;20138;-73
2022/11/15 09:49:23;;;;;;;18.95;11.98;;;;;;;;;;5019448;28;20556;-73
2022/11/15 09:51:51;;;;;;;19.25;11.60;;;;;;;;;;5022659;28;20065;-73
2022/11/15 09:54:27;;;;;;;21.35;12.15;;;;;;;;;;5021270;28;20061;-72
2022/11/15 09:57:16;;;;;;;18.52;10.68;;;;;;;;;;5020937;28;20054;-71
2022/11/15 09:59:43;;;;;;;14.80;10.40;;;;;;;;;;5011919;28;20862;-73
2022/11/15 10:02:16;;;;;;;15.52;10.60;;;;;;;;;;5019927;28;20062;-72
2022/11/15 10:04:42;;;;;;;17.52;9.45;;;;;;;;;;5035279;28;20053;-72
2022/11/15 10:07:20;;;;;;;15.07;10.52;;;;;;;;;;5027030;28;20054;-73
2022/11/15 10:09:56;;;;;;;12.88;8.95;;;;;;;;;;5011756;28;20507;-72
2022/11/15 10:12:24;;;;;;;15.80;8.65;;;;;;;;;;5024914;28;20586;-73
2022/11/15 10:14:54;;;;;;;10.25;7.85;;;;;;;;;;5016808;28;20059;-74
2022/11/15 10:17:26;;;;;;;14.10;7.55;;;;;;;;;;5005998;28;20301;-73
2022/11/15 10:19:56;;;;;;;12.10;7.50;;;;;;;;;;5018925;28;20057;-73
2022/11/15 10:22:30;;;;;;;10.23;7.05;;;;;;;;;;5023566;28;20166;-73
2022/11/15 10:25:09;;;;;;;11.85;6.95;;;;;;;;;;5023337;28;20053;-73
2022/11/15 10:27:36;;;;;;;9.05;6.10;;;;;;;;;;5019218;28;20544;-74
2022/11/15 10:30:04;;;;;;;9.65;6.45;;;;;;;;;;5035716;28;20054;-71
2022/11/15 10:32:32;;;;;;;9.20;6.13;;;;;;;;;;5013811;28;20050;-73
2022/11/15 10:34:58;;;;;;;10.70;5.55;;;;;;;;;;5013362;28;20053;-73
2022/11/15 10:37:29;;;;;;;12.10;6.10;;;;;;;;;;5043141;28;20053;-72
2022/11/15 10:40:18;;;;;;;7.47;5.78;;;;;;;;;;5031315;28;20345;-73
2022/11/15 10:42:45;;;;;;;10.43;5.03;;;;;;;;;;5029641;28;20520;-74
2022/11/15 10:45:25;;;;;;;8.68;4.97;;;;;;;;;;5016790;28;20447;-71
2022/11/15 10:47:51;;;;;;;7.32;4.40;;;;;;;;;;5022448;28;20073;-73
2022/11/15 10:50:31;;;;;;;5.95;4.30;;;;;;;;;;5019068;28;20065;-72
2022/11/15 10:52:58;;;;;;;6.95;4.38;;;;;;;;;;5018368;28;20049;-73
2022/11/15 10:55:26;;;;;;;5.28;3.88;;;;;;;;;;5038297;28;20616;-73
2022/11/15 10:57:54;;;;;;;6.53;3.58;;;;;;;;;;5033135;28;20049;-74
2022/11/15 11:00:21;;;;;;;5.30;4.05;;;;;;;;;;5023723;28;20066;-72
2022/11/15 11:02:56;;;;;;;7.40;4.00;;;;;;;;;;5015430;28;20486;-72
2022/11/15 11:05:22;;;;;;;;;;;;;;;;;;5014205;28;20061;-81
2022/11/15 11:07:54;;;;;;;7.78;3.58;;;;;;;;;;5020915;28;46924;-74
2022/11/15 11:10:21;;;;;;;6.97;3.67;;;;;;;;;;5019954;28;20050;-71
2022/11/15 11:13:24;;;;;;;9.00;4.00;;;;;;;;;;5012347;28;20061;-73
2022/11/15 11:16:06;;;;;;;5.32;3.05;;;;;;;;;;5007179;28;20050;-72
2022/11/15 11:18:52;;;;;;;4.90;4.07;;;;;;;;;;5023429;28;20054;-72
2022/11/15 11:21:25;;;;;;;4.82;3.83;;;;;;;;;;5016197;28;20484;-71
2022/11/15 11:24:12;;;;;;;7.57;4.10;;;;;;;;;;5013186;28;20591;-70
2022/11/15 11:26:41;;;;;;;4.20;3.55;;;;;;;;;;5015696;28;20468;-72
2022/11/15 11:29:20;;;;;;;5.38;3.42;;;;;;;;;;5013290;28;20141;-69
2022/11/15 11:31:54;;;;;;;3.72;3.30;;;;;;;;;;5006146;28;20061;-72
2022/11/15 11:34:37;;;;;;;8.10;4.43;;;;;;;;;;5010779;28;20465;-71
2022/11/15 11:37:09;;;;;;;5.07;3.08;;;;;;;;;;5011056;28;20062;-72
2022/11/15 11:39:45;;;;;;;3.88;2.97;;;;;;;;;;5008485;28;20133;-72
2022/11/15 11:42:11;;;;;;;;;;;;;;;;;;5020077;28;20053;-70
2022/11/15 11:44:50;;;;;;;5.65;3.35;;;;;;;;;;5015839;28;47504;-71
2022/11/15 11:47:37;;;;;;;4.95;3.60;;;;;;;;;;5009142;28;20060;-71
2022/11/15 11:50:13;;;;;;;4.13;3.20;;;;;;;;;;5013433;28;20046;-70
2022/11/15 11:52:43;;;;;;;4.55;2.67;;;;;;;;;;5006931;28;20057;-70
2022/11/15 11:55:44;;;;;;;4.03;2.60;;;;;;;;;;5030272;28;20449;-71
2022/11/15 11:58:29;;;;;;;7.43;2.95;;;;;;;;;;5021379;28;20100;-71
2022/11/15 12:01:05;;;;;;;3.28;2.85;;;;;;;;;;5003551;28;20054;-73
2022/11/15 12:03:43;;;;;;;5.32;2.55;;;;;;;;;;5016233;28;20148;-70
2022/11/15 12:06:18;;;;;;;6.75;2.50;;;;;;;;;;5002429;28;20482;-73
2022/11/15 12:08:48;;;;;;;2.40;2.20;;;;;;;;;;5017767;28;20479;-75
2022/11/15 12:11:22;;;;;;;5.22;1.90;;;;;;;;;;5011564;28;20845;-71
2022/11/15 12:13:50;;;;;;;6.53;2.88;;;;;;;;;;5014071;28;20491;-71
2022/11/15 12:16:19;;;;;;;10.20;2.40;;;;;;;;;;5011380;28;20524;-72
2022/11/15 12:18:48;;;;;;;5.55;1.92;;;;;;;;;;5024559;28;20101;-72
2022/11/15 12:21:33;;;;;;;7.38;1.85;;;;;;;;;;5010899;28;20089;-71
2022/11/15 12:24:06;;;;;;;2.97;1.55;;;;;;;;;;5011692;28;20511;-71
2022/11/15 12:26:36;;;;;;;4.10;1.30;;;;;;;;;;5010111;28;20062;-72
2022/11/15 12:29:15;;;;;;;6.00;2.53;;;;;;;;;;5017931;28;20053;-70
2022/11/15 12:31:44;;;;;;;6.10;1.50;;;;;;;;;;5020050;28;20188;-70
2022/11/15 12:34:20;;;;;;;6.10;1.70;;;;;;;;;;5032426;28;20061;-71
2022/11/15 12:36:46;;;;;;;3.92;1.60;;;;;;;;;;5021856;28;20057;-72
2022/11/15 12:39:13;;;;;;;7.22;1.25;;;;;;;;;;5023659;28;20050;-72
2022/11/15 12:41:41;;;;;;;3.60;1.27;;;;;;;;;;5022045;28;20050;-72
2022/11/15 12:44:12;;;;;;;3.63;1.40;;;;;;;;;;5013024;28;20060;-72
2022/11/15 12:46:38;;;;;;;3.13;1.42;;;;;;;;;;5022381;28;20046;-71
2022/11/15 12:49:11;;;;;;;6.60;1.45;;;;;;;;;;5015765;28;20055;-74
2022/11/15 12:51:47;;;;;;;5.20;1.75;;;;;;;;;;5021163;28;20089;-70
2022/11/15 12:54:13;;;;;;;;;;;;;;;;;;5030078;28;20049;-70
2022/11/15 12:56:40;;;;;;;3.00;1.05;;;;;;;;;;5062061;28;46027;-70
2022/11/15 12:59:06;;;;;;;2.47;1.42;;;;;;;;;;5025573;28;20049;-72
2022/11/15 13:01:33;;;;;;;4.20;1.17;;;;;;;;;;5017965;28;20054;-72
2022/11/15 13:04:14;;;;;;;6.28;1.63;;;;;;;;;;5020000;28;20049;-70
2022/11/15 13:06:45;;;;;;;4.30;1.23;;;;;;;;;;5024876;28;20050;-71
2022/11/15 13:09:29;;;;;;;1.80;1.15;;;;;;;;;;5017623;28;20495;-72
2022/11/15 13:11:56;;;;;;;2.90;1.02;;;;;;;;;;5021779;28;20058;-77
2022/11/15 13:14:35;;;;;;;4.50;1.48;;;;;;;;;;5024081;28;20050;-75
2022/11/15 13:17:01;;;;;;;4.70;1.85;;;;;;;;;;5054667;28;20054;-75
2022/11/15 13:19:28;;;;;;;2.65;1.35;;;;;;;;;;5026670;28;20546;-77
2022/11/15 13:24:39;;;;;;;2.75;1.75;;;;;;;;;;5025056;28;20045;-74
2022/11/15 13:27:12;;;;;;;2.58;1.35;;;;;;;;;;5025127;28;20516;-73
2022/11/15 13:29:42;;;;;;;3.97;1.70;;;;;;;;;;5022790;28;20068;-73
2022/11/15 13:32:15;;;;;;;6.47;1.60;;;;;;;;;;5032871;28;20061;-73
2022/11/15 13:34:52;;;;;;;4.93;1.77;;;;;;;;;;5027475;28;20050;-72
2022/11/15 13:37:22;;;;;;;3.42;1.67;;;;;;;;;;5034550;28;20054;-73
2022/11/15 13:39:49;;;;;;;4.30;1.83;;;;;;;;;;5031384;28;20046;-72
2022/11/15 13:42:19;;;;;;;2.22;1.60;;;;;;;;;;5020802;28;20089;-71
2022/11/15 13:44:56;;;;;;;2.67;1.42;;;;;;;;;;5011143;28;20057;-71
2022/11/15 13:47:26;;;;;;;6.10;2.20;;;;;;;;;;5019697;28;20050;-73
2022/11/15 13:49:53;;;;;;;5.53;1.95;;;;;;;;;;5011718;28;20099;-73
2022/11/15 13:52:20;;;;;;;2.30;1.92;;;;;;;;;;5021988;28;20058;-72
2022/11/15 13:55:09;;;;;;;5.20;1.98;;;;;;;;;;5010164;28;20551;-72
2022/11/15 13:57:39;;;;;;;2.80;1.30;;;;;;;;;;5012493;28;20054;-72
2022/11/15 14:00:22;;;;;;;5.97;2.13;;;;;;;;;;5008406;28;20643;-72
2022/11/15 14:02:48;;;;;;;3.28;1.45;;;;;;;;;;5011681;28;20058;-71
2022/11/15 14:05:21;;;;;;;3.95;1.80;;;;;;;;;;5025034;28;20053;-73
2022/11/15 14:07:58;;;;;;;3.17;1.70;;;;;;;;;;5028432;28;20060;-72
2022/11/15 14:10:29;;;;;;;4.63;1.90;;;;;;;;;;5024475;28;20578;-73
2022/11/15 14:12:56;;;;;;;3.03;1.65;;;;;;;;;;5022993;28;20061;-74
2022/11/15 14:15:30;;;;;;;4.57;1.83;;;;;;;;;;5019523;28;20046;-72
2022/11/15 14:17:56;;;;;;;5.97;1.77;;;;;;;;;;5020801;28;20519;-72
2022/11/15 14:20:25;;;;;;;4.80;1.73;;;;;;;;;;5008186;28;20066;-72
2022/11/15 14:22:55;;;;;;;7.15;2.60;;;;;;;;;;5028551;28;20500;-72
2022/11/15 14:25:23;;;;;;;5.63;3.25;;;;;;;;;;5016064;28;20133;-72
2022/11/15 14:28:07;;;;;;;11.23;2.28;;;;;;;;;;5005152;28;20050;-72
2022/11/15 14:30:34;;;;;;;3.78;1.65;;;;;;;;;;5010907;28;20057;-71
2022/11/15 14:33:00;;;;;;;3.58;1.65;;;;;;;;;;5023725;28;20085;-72
2022/11/15 14:35:27;;;;;;;2.45;1.67;;;;;;;;;;5033922;28;21621;-71
2022/11/15 14:37:53;;;;;;;4.63;1.60;;;;;;;;;;5029447;28;20053;-71
2022/11/15 14:40:20;;;;;;;5.15;1.85;;;;;;;;;;5006899;28;20046;-70
2022/11/15 14:42:48;;;;;;;5.15;3.13;;;;;;;;;;5011827;28;20437;-73
2022/11/15 14:45:15;;;;;;;2.75;1.45;;;;;;;;;;5015235;28;20488;-72
2022/11/15 14:47:42;;;;;;;3.65;1.40;;;;;;;;;;5018608;28;20141;-71
2022/11/15 14:50:13;;;;;;;3.63;1.50;;;;;;;;;;5010863;28;20451;-73
2022/11/15 14:52:39;;;;;;;6.85;1.58;;;;;;;;;;5013022;28;20062;-71
2022/11/15 14:55:27;;;;;;;2.67;1.10;;;;;;;;;;5000475;28;20140;-74
2022/11/15 14:57:54;;;;;;;4.78;1.48;;;;;;;;;;5010871;28;20504;-71